LEAL/ALC METAR and TAF weather

Enter ICAO airport designator
Station Type Date Time Source
LEAL METAR 2022/01/27 23:00 UTC NOAA

LEAL 272300Z 36005KT 9999 SCT020 10/08 Q1030 NOSIG


Station Type Date Time Source
LEAL Decoded METAR 2022/01/27 23:00 UTC NOAA

Alicante / El Altet, Spain (LEAL) 38-17N 000-33W 31M
Jan 27, 2022 - 06:00 PM EST / 2022.01.27 2300 UTC
Wind: from the N (360 degrees) at 6 MPH (5 KT):0
Visibility: greater than 7 mile(s):0
Sky conditions: partly cloudy
Temperature: 50 F (10 C)
Dew Point: 46 F (8 C)
Relative Humidity: 87%
Pressure (altimeter): 30.42 in. Hg (1030 hPa)
ob: LEAL 272300Z 36005KT 9999 SCT020 10/08 Q1030 NOSIG
cycle: 23

Station Type Date Time Source
LEAL TAF 2022/01/27 18:27 UTC NOAA

TAF TAF LEAL 271700Z 2718/2818 01005KT 9999 FEW030 TX15/2812Z TN06/2806Z

Example: see airport list